sensor_id;sensor_type;location;lat;lon;timestamp;temperature;humidity
11025;DHT22;22890;51.820;8.682;2022-08-18T00:00:31;20.70;99.90
11025;DHT22;22890;51.820;8.682;2022-08-18T00:03:04;20.70;99.90
11025;DHT22;22890;51.820;8.682;2022-08-18T00:05:51;20.60;99.90
11025;DHT22;22890;51.820;8.682;2022-08-18T00:08:17;20.60;99.90
11025;DHT22;22890;51.820;8.682;2022-08-18T00:10:44;20.50;99.90
11025;DHT22;22890;51.820;8.682;2022-08-18T00:13:10;20.50;99.90
11025;DHT22;22890;51.820;8.682;2022-08-18T00:15:37;20.40;99.90
11025;DHT22;22890;51.820;8.682;2022-08-18T00:18:14;20.40;99.90
11025;DHT22;22890;51.820;8.682;2022-08-18T00:20:40;20.30;99.90
11025;DHT22;22890;51.820;8.682;2022-08-18T00:23:07;20.30;99.90
11025;DHT22;22890;51.820;8.682;2022-08-18T00:25:34;20.30;99.90
11025;DHT22;22890;51.820;8.682;2022-08-18T00:28:01;20.30;99.90
11025;DHT22;22890;51.820;8.682;2022-08-18T00:30:28;20.30;99.90
11025;DHT22;22890;51.820;8.682;2022-08-18T00:32:57;20.20;99.90
11025;DHT22;22890;51.820;8.682;2022-08-18T00:35:33;20.20;99.90
11025;DHT22;22890;51.820;8.682;2022-08-18T00:38:03;20.20;99.90
11025;DHT22;22890;51.820;8.682;2022-08-18T00:40:46;20.20;99.90
11025;DHT22;22890;51.820;8.682;2022-08-18T00:43:25;20.10;99.90
11025;DHT22;22890;51.820;8.682;2022-08-18T00:45:52;20.10;99.90
11025;DHT22;22890;51.820;8.682;2022-08-18T00:48:19;20.10;99.90
11025;DHT22;22890;51.820;8.682;2022-08-18T00:50:55;20.00;99.90
11025;DHT22;22890;51.820;8.682;2022-08-18T00:53:35;19.90;99.90
11025;DHT22;22890;51.820;8.682;2022-08-18T00:56:12;19.90;99.90
11025;DHT22;22890;51.820;8.682;2022-08-18T00:58:46;19.80;99.90
11025;DHT22;22890;51.820;8.682;2022-08-18T01:01:17;19.80;99.90
11025;DHT22;22890;51.820;8.682;2022-08-18T01:03:46;19.70;99.90
11025;DHT22;22890;51.820;8.682;2022-08-18T01:08:47;19.60;99.90
11025;DHT22;22890;51.820;8.682;2022-08-18T01:11:14;19.60;99.90
11025;DHT22;22890;51.820;8.682;2022-08-18T01:13:41;19.60;99.90
11025;DHT22;22890;51.820;8.682;2022-08-18T01:16:08;19.60;99.90
11025;DHT22;22890;51.820;8.682;2022-08-18T01:18:53;19.50;99.90
11025;DHT22;22890;51.820;8.682;2022-08-18T01:21:46;19.50;99.90
11025;DHT22;22890;51.820;8.682;2022-08-18T01:24:19;19.40;99.90
11025;DHT22;22890;51.820;8.682;2022-08-18T01:26:48;19.40;99.90
11025;DHT22;22890;51.820;8.682;2022-08-18T01:29:18;19.40;99.90
11025;DHT22;22890;51.820;8.682;2022-08-18T01:31:51;19.40;99.90
11025;DHT22;22890;51.820;8.682;2022-08-18T01:34:24;19.30;99.90
11025;DHT22;22890;51.820;8.682;2022-08-18T01:36:52;19.30;99.90
11025;DHT22;22890;51.820;8.682;2022-08-18T01:39:21;19.30;99.90
11025;DHT22;22890;51.820;8.682;2022-08-18T01:42:08;19.20;99.90
11025;DHT22;22890;51.820;8.682;2022-08-18T01:44:35;19.10;99.90
11025;DHT22;22890;51.820;8.682;2022-08-18T01:47:02;19.10;99.90
11025;DHT22;22890;51.820;8.682;2022-08-18T01:49:29;19.10;99.90
11025;DHT22;22890;51.820;8.682;2022-08-18T01:51:56;19.10;99.90
11025;DHT22;22890;51.820;8.682;2022-08-18T01:54:22;19.10;99.90
11025;DHT22;22890;51.820;8.682;2022-08-18T01:56:49;19.10;99.90
11025;DHT22;22890;51.820;8.682;2022-08-18T01:59:18;19.10;99.90
11025;DHT22;22890;51.820;8.682;2022-08-18T02:01:45;19.10;99.90
11025;DHT22;22890;51.820;8.682;2022-08-18T02:04:21;19.00;99.90
11025;DHT22;22890;51.820;8.682;2022-08-18T02:07:06;19.00;99.90
11025;DHT22;22890;51.820;8.682;2022-08-18T02:09:33;19.00;99.90
11025;DHT22;22890;51.820;8.682;2022-08-18T02:12:00;19.00;99.90
11025;DHT22;22890;51.820;8.682;2022-08-18T02:14:27;18.90;99.90
11025;DHT22;22890;51.820;8.682;2022-08-18T02:16:57;18.90;99.90
11025;DHT22;22890;51.820;8.682;2022-08-18T02:19:36;18.80;99.90
11025;DHT22;22890;51.820;8.682;2022-08-18T02:22:05;18.80;99.90
11025;DHT22;22890;51.820;8.682;2022-08-18T02:24:32;18.80;99.90
11025;DHT22;22890;51.820;8.682;2022-08-18T02:26:58;18.80;99.90
11025;DHT22;22890;51.820;8.682;2022-08-18T02:29:25;18.80;99.90
11025;DHT22;22890;51.820;8.682;2022-08-18T02:31:52;18.80;99.90
11025;DHT22;22890;51.820;8.682;2022-08-18T02:34:19;18.70;99.90
11025;DHT22;22890;51.820;8.682;2022-08-18T02:36:45;18.70;99.90
11025;DHT22;22890;51.820;8.682;2022-08-18T02:39:13;18.70;99.90
11025;DHT22;22890;51.820;8.682;2022-08-18T02:41:39;18.60;99.90
11025;DHT22;22890;51.820;8.682;2022-08-18T02:44:07;18.60;99.90
11025;DHT22;22890;51.820;8.682;2022-08-18T02:46:34;18.60;99.90
11025;DHT22;22890;51.820;8.682;2022-08-18T02:49:01;18.60;99.90
11025;DHT22;22890;51.820;8.682;2022-08-18T02:51:27;18.60;99.90
11025;DHT22;22890;51.820;8.682;2022-08-18T02:53:54;18.50;99.90
11025;DHT22;22890;51.820;8.682;2022-08-18T02:56:26;18.50;99.90
11025;DHT22;22890;51.820;8.682;2022-08-18T02:59:11;18.50;99.90
11025;DHT22;22890;51.820;8.682;2022-08-18T03:01:41;18.40;99.90
11025;DHT22;22890;51.820;8.682;2022-08-18T03:04:11;18.40;99.90
11025;DHT22;22890;51.820;8.682;2022-08-18T03:06:38;18.30;99.90
11025;DHT22;22890;51.820;8.682;2022-08-18T03:09:06;18.30;99.90
11025;DHT22;22890;51.820;8.682;2022-08-18T03:11:33;18.30;99.90
11025;DHT22;22890;51.820;8.682;2022-08-18T03:14:01;18.30;99.90
11025;DHT22;22890;51.820;8.682;2022-08-18T03:16:28;18.30;99.90
11025;DHT22;22890;51.820;8.682;2022-08-18T03:19:00;18.30;99.90
11025;DHT22;22890;51.820;8.682;2022-08-18T03:21:29;18.30;99.90
11025;DHT22;22890;51.820;8.682;2022-08-18T03:23:56;18.30;99.90
11025;DHT22;22890;51.820;8.682;2022-08-18T03:26:28;18.20;99.90
11025;DHT22;22890;51.820;8.682;2022-08-18T03:28:56;18.20;99.90
11025;DHT22;22890;51.820;8.682;2022-08-18T03:31:25;19.60;99.90
11025;DHT22;22890;51.820;8.682;2022-08-18T03:33:54;18.10;99.90
11025;DHT22;22890;51.820;8.682;2022-08-18T03:36:27;18.10;99.90
11025;DHT22;22890;51.820;8.682;2022-08-18T03:38:54;18.00;99.90
11025;DHT22;22890;51.820;8.682;2022-08-18T03:41:22;18.10;99.90
11025;DHT22;22890;51.820;8.682;2022-08-18T03:44:11;18.10;99.90
11025;DHT22;22890;51.820;8.682;2022-08-18T03:46:41;18.00;99.90
11025;DHT22;22890;51.820;8.682;2022-08-18T03:49:07;18.00;99.90
11025;DHT22;22890;51.820;8.682;2022-08-18T03:51:34;17.90;99.90
11025;DHT22;22890;51.820;8.682;2022-08-18T03:54:03;18.00;99.90
11025;DHT22;22890;51.820;8.682;2022-08-18T03:56:36;18.00;99.90
11025;DHT22;22890;51.820;8.682;2022-08-18T03:59:21;17.90;99.90
11025;DHT22;22890;51.820;8.682;2022-08-18T04:01:50;17.90;99.90
11025;DHT22;22890;51.820;8.682;2022-08-18T04:04:20;17.90;99.90
11025;DHT22;22890;51.820;8.682;2022-08-18T04:06:50;17.90;99.90
11025;DHT22;22890;51.820;8.682;2022-08-18T04:09:20;17.90;99.90
11025;DHT22;22890;51.820;8.682;2022-08-18T04:11:48;17.80;99.90
11025;DHT22;22890;51.820;8.682;2022-08-18T04:14:18;17.80;99.90
11025;DHT22;22890;51.820;8.682;2022-08-18T04:16:45;17.80;99.90
11025;DHT22;22890;51.820;8.682;2022-08-18T04:19:13;17.80;99.90
11025;DHT22;22890;51.820;8.682;2022-08-18T04:21:55;17.80;99.90
11025;DHT22;22890;51.820;8.682;2022-08-18T04:24:22;17.80;99.90
11025;DHT22;22890;51.820;8.682;2022-08-18T04:26:52;17.80;99.90
11025;DHT22;22890;51.820;8.682;2022-08-18T04:29:19;17.70;99.90
11025;DHT22;22890;51.820;8.682;2022-08-18T04:31:48;17.70;99.90
11025;DHT22;22890;51.820;8.682;2022-08-18T04:34:16;17.70;99.90
11025;DHT22;22890;51.820;8.682;2022-08-18T04:36:43;17.70;99.90
11025;DHT22;22890;51.820;8.682;2022-08-18T04:39:12;17.70;99.90
11025;DHT22;22890;51.820;8.682;2022-08-18T04:41:41;17.70;99.90
11025;DHT22;22890;51.820;8.682;2022-08-18T04:44:10;17.70;99.90
11025;DHT22;22890;51.820;8.682;2022-08-18T04:46:40;17.70;99.90
11025;DHT22;22890;51.820;8.682;2022-08-18T04:49:07;17.70;99.90
11025;DHT22;22890;51.820;8.682;2022-08-18T04:51:43;17.70;99.90
11025;DHT22;22890;51.820;8.682;2022-08-18T04:54:34;17.60;99.90
11025;DHT22;22890;51.820;8.682;2022-08-18T04:57:08;17.60;99.90
11025;DHT22;22890;51.820;8.682;2022-08-18T04:59:36;17.60;99.90
11025;DHT22;22890;51.820;8.682;2022-08-18T05:02:03;17.70;99.90
11025;DHT22;22890;51.820;8.682;2022-08-18T05:04:41;17.70;99.90
11025;DHT22;22890;51.820;8.682;2022-08-18T05:07:14;17.70;99.90
11025;DHT22;22890;51.820;8.682;2022-08-18T05:09:42;17.70;99.90
11025;DHT22;22890;51.820;8.682;2022-08-18T05:12:14;17.70;99.90
11025;DHT22;22890;51.820;8.682;2022-08-18T05:14:42;17.80;99.90
11025;DHT22;22890;51.820;8.682;2022-08-18T05:17:14;17.80;99.90
11025;DHT22;22890;51.820;8.682;2022-08-18T05:19:41;17.80;99.90
11025;DHT22;22890;51.820;8.682;2022-08-18T05:22:11;17.80;99.90
11025;DHT22;22890;51.820;8.682;2022-08-18T05:24:44;17.80;99.90
11025;DHT22;22890;51.820;8.682;2022-08-18T05:27:10;17.90;99.90
11025;DHT22;22890;51.820;8.682;2022-08-18T05:29:38;17.90;99.90
11025;DHT22;22890;51.820;8.682;2022-08-18T05:32:12;17.90;99.90
11025;DHT22;22890;51.820;8.682;2022-08-18T05:35:04;18.00;99.90
11025;DHT22;22890;51.820;8.682;2022-08-18T05:37:44;18.00;99.90
11025;DHT22;22890;51.820;8.682;2022-08-18T05:40:15;18.00;99.90
11025;DHT22;22890;51.820;8.682;2022-08-18T05:42:42;18.10;99.90
11025;DHT22;22890;51.820;8.682;2022-08-18T05:45:15;18.10;99.90
11025;DHT22;22890;51.820;8.682;2022-08-18T05:47:42;18.20;99.90
11025;DHT22;22890;51.820;8.682;2022-08-18T05:50:13;18.20;99.90
11025;DHT22;22890;51.820;8.682;2022-08-18T05:52:49;18.20;99.90
11025;DHT22;22890;51.820;8.682;2022-08-18T05:55:32;18.40;99.90
11025;DHT22;22890;51.820;8.682;2022-08-18T05:58:24;18.40;99.90
11025;DHT22;22890;51.820;8.682;2022-08-18T06:01:06;18.50;99.90
11025;DHT22;22890;51.820;8.682;2022-08-18T06:03:54;18.50;99.90
11025;DHT22;22890;51.820;8.682;2022-08-18T06:06:26;18.60;99.90
11025;DHT22;22890;51.820;8.682;2022-08-18T06:09:09;18.60;99.90
11025;DHT22;22890;51.820;8.682;2022-08-18T06:11:37;18.60;99.90
11025;DHT22;22890;51.820;8.682;2022-08-18T06:14:04;18.70;99.90
11025;DHT22;22890;51.820;8.682;2022-08-18T06:19:00;18.70;99.90
11025;DHT22;22890;51.820;8.682;2022-08-18T06:21:43;18.70;99.90
11025;DHT22;22890;51.820;8.682;2022-08-18T06:24:30;18.70;99.90
11025;DHT22;22890;51.820;8.682;2022-08-18T06:30:04;18.80;99.90
11025;DHT22;22890;51.820;8.682;2022-08-18T06:38:02;18.80;99.90
11025;DHT22;22890;51.820;8.682;2022-08-18T06:41:00;18.80;99.90
11025;DHT22;22890;51.820;8.682;2022-08-18T06:43:28;18.90;99.90
11025;DHT22;22890;51.820;8.682;2022-08-18T06:45:57;18.90;99.90
11025;DHT22;22890;51.820;8.682;2022-08-18T06:48:39;18.90;99.90
11025;DHT22;22890;51.820;8.682;2022-08-18T06:51:07;19.00;99.90
11025;DHT22;22890;51.820;8.682;2022-08-18T06:56:44;19.10;99.90
11025;DHT22;22890;51.820;8.682;2022-08-18T06:59:31;19.00;99.90
11025;DHT22;22890;51.820;8.682;2022-08-18T07:02:00;19.10;99.90
11025;DHT22;22890;51.820;8.682;2022-08-18T07:04:43;19.20;99.90
11025;DHT22;22890;51.820;8.682;2022-08-18T07:07:30;19.20;99.90
11025;DHT22;22890;51.820;8.682;2022-08-18T07:12:42;19.20;99.90
11025;DHT22;22890;51.820;8.682;2022-08-18T07:15:12;19.20;99.90
11025;DHT22;22890;51.820;8.682;2022-08-18T07:17:38;19.10;99.90
11025;DHT22;22890;51.820;8.682;2022-08-18T07:20:19;19.10;99.90
11025;DHT22;22890;51.820;8.682;2022-08-18T07:23:02;19.20;99.90
11025;DHT22;22890;51.820;8.682;2022-08-18T07:25:41;19.10;99.90
11025;DHT22;22890;51.820;8.682;2022-08-18T07:28:36;19.20;99.90
11025;DHT22;22890;51.820;8.682;2022-08-18T07:31:31;19.20;99.90
11025;DHT22;22890;51.820;8.682;2022-08-18T07:34:05;19.30;99.90
11025;DHT22;22890;51.820;8.682;2022-08-18T07:36:46;19.40;99.90
11025;DHT22;22890;51.820;8.682;2022-08-18T07:39:22;19.40;99.90
11025;DHT22;22890;51.820;8.682;2022-08-18T07:42:16;19.50;99.90
11025;DHT22;22890;51.820;8.682;2022-08-18T07:45:13;19.60;99.90
11025;DHT22;22890;51.820;8.682;2022-08-18T07:47:54;19.80;99.90
11025;DHT22;22890;51.820;8.682;2022-08-18T07:50:23;19.90;99.90
11025;DHT22;22890;51.820;8.682;2022-08-18T07:56:02;20.10;99.90
11025;DHT22;22890;51.820;8.682;2022-08-18T07:58:38;20.20;99.90
11025;DHT22;22890;51.820;8.682;2022-08-18T08:01:22;20.30;99.90
11025;DHT22;22890;51.820;8.682;2022-08-18T08:07:03;20.40;99.90
11025;DHT22;22890;51.820;8.682;2022-08-18T08:10:23;20.50;99.90
11025;DHT22;22890;51.820;8.682;2022-08-18T08:13:11;20.60;99.90
11025;DHT22;22890;51.820;8.682;2022-08-18T08:16:19;20.60;99.90
11025;DHT22;22890;51.820;8.682;2022-08-18T08:21:29;20.70;99.90
11025;DHT22;22890;51.820;8.682;2022-08-18T08:24:22;20.70;99.90
11025;DHT22;22890;51.820;8.682;2022-08-18T08:27:08;20.80;99.90
11025;DHT22;22890;51.820;8.682;2022-08-18T08:29:54;20.80;99.90
11025;DHT22;22890;51.820;8.682;2022-08-18T08:32:35;20.90;99.90
11025;DHT22;22890;51.820;8.682;2022-08-18T08:35:10;21.00;99.90
11025;DHT22;22890;51.820;8.682;2022-08-18T08:38:38;21.10;99.90
11025;DHT22;22890;51.820;8.682;2022-08-18T08:41:17;21.10;99.90
11025;DHT22;22890;51.820;8.682;2022-08-18T08:43:51;21.20;99.90
11025;DHT22;22890;51.820;8.682;2022-08-18T08:46:25;21.10;99.90
11025;DHT22;22890;51.820;8.682;2022-08-18T08:49:05;21.10;99.90
11025;DHT22;22890;51.820;8.682;2022-08-18T08:51:37;21.20;99.90
11025;DHT22;22890;51.820;8.682;2022-08-18T08:54:12;21.30;99.90
11025;DHT22;22890;51.820;8.682;2022-08-18T08:56:46;21.30;99.90
11025;DHT22;22890;51.820;8.682;2022-08-18T08:59:15;21.40;99.90
11025;DHT22;22890;51.820;8.682;2022-08-18T09:04:45;21.50;99.90
11025;DHT22;22890;51.820;8.682;2022-08-18T09:07:45;21.50;99.90
11025;DHT22;22890;51.820;8.682;2022-08-18T09:19:16;21.50;99.90
11025;DHT22;22890;51.820;8.682;2022-08-18T09:22:15;21.50;99.90
11025;DHT22;22890;51.820;8.682;2022-08-18T09:24:53;21.60;99.90
11025;DHT22;22890;51.820;8.682;2022-08-18T09:27:40;21.60;99.90
11025;DHT22;22890;51.820;8.682;2022-08-18T09:31:12;21.60;99.90
11025;DHT22;22890;51.820;8.682;2022-08-18T09:36:59;21.40;99.90
11025;DHT22;22890;51.820;8.682;2022-08-18T09:39:35;21.40;99.90
11025;DHT22;22890;51.820;8.682;2022-08-18T09:44:58;21.50;99.90
11025;DHT22;22890;51.820;8.682;2022-08-18T09:55:57;21.70;99.90
11025;DHT22;22890;51.820;8.682;2022-08-18T09:58:50;21.70;99.90
11025;DHT22;22890;51.820;8.682;2022-08-18T10:01:34;21.80;99.90
11025;DHT22;22890;51.820;8.682;2022-08-18T10:06:45;21.60;99.90
11025;DHT22;22890;51.820;8.682;2022-08-18T10:09:30;21.60;99.90
11025;DHT22;22890;51.820;8.682;2022-08-18T10:21:23;21.70;99.90
11025;DHT22;22890;51.820;8.682;2022-08-18T10:24:18;21.60;99.90
11025;DHT22;22890;51.820;8.682;2022-08-18T10:27:10;21.60;99.90
11025;DHT22;22890;51.820;8.682;2022-08-18T10:29:48;21.50;99.90
11025;DHT22;22890;51.820;8.682;2022-08-18T10:32:22;21.50;99.90
11025;DHT22;22890;51.820;8.682;2022-08-18T10:34:51;21.50;99.90
11025;DHT22;22890;51.820;8.682;2022-08-18T10:37:45;21.50;99.90
11025;DHT22;22890;51.820;8.682;2022-08-18T10:40:18;21.60;99.90
11025;DHT22;22890;51.820;8.682;2022-08-18T10:42:55;21.80;99.90
11025;DHT22;22890;51.820;8.682;2022-08-18T10:45:29;21.90;99.90
11025;DHT22;22890;51.820;8.682;2022-08-18T10:48:06;22.00;99.90
11025;DHT22;22890;51.820;8.682;2022-08-18T10:51:15;22.20;99.90
11025;DHT22;22890;51.820;8.682;2022-08-18T10:56:53;22.40;99.90
11025;DHT22;22890;51.820;8.682;2022-08-18T10:59:46;22.50;99.90
11025;DHT22;22890;51.820;8.682;2022-08-18T11:05:19;22.60;99.90
11025;DHT22;22890;51.820;8.682;2022-08-18T11:07:49;22.70;99.90
11025;DHT22;22890;51.820;8.682;2022-08-18T11:10:39;22.70;99.90
11025;DHT22;22890;51.820;8.682;2022-08-18T11:17:20;22.90;99.90
11025;DHT22;22890;51.820;8.682;2022-08-18T11:19:52;22.90;99.90
11025;DHT22;22890;51.820;8.682;2022-08-18T11:22:27;22.90;99.90
11025;DHT22;22890;51.820;8.682;2022-08-18T11:24:59;23.00;99.90
11025;DHT22;22890;51.820;8.682;2022-08-18T11:27:32;23.00;99.90
11025;DHT22;22890;51.820;8.682;2022-08-18T11:30:03;23.00;99.90
11025;DHT22;22890;51.820;8.682;2022-08-18T11:32:33;23.10;99.90
11025;DHT22;22890;51.820;8.682;2022-08-18T11:37:48;23.20;99.90
11025;DHT22;22890;51.820;8.682;2022-08-18T11:43:13;23.30;99.90
11025;DHT22;22890;51.820;8.682;2022-08-18T11:45:51;23.40;99.90
11025;DHT22;22890;51.820;8.682;2022-08-18T11:51:23;23.30;99.90
11025;DHT22;22890;51.820;8.682;2022-08-18T11:54:00;23.20;99.90
11025;DHT22;22890;51.820;8.682;2022-08-18T11:56:30;23.10;99.90
11025;DHT22;22890;51.820;8.682;2022-08-18T12:02:18;23.20;99.90
11025;DHT22;22890;51.820;8.682;2022-08-18T12:04:54;23.30;99.90
11025;DHT22;22890;51.820;8.682;2022-08-18T12:07:33;23.30;99.90
11025;DHT22;22890;51.820;8.682;2022-08-18T12:12:46;23.20;99.90
11025;DHT22;22890;51.820;8.682;2022-08-18T12:17:51;23.30;99.90
11025;DHT22;22890;51.820;8.682;2022-08-18T12:20:20;23.30;99.90
11025;DHT22;22890;51.820;8.682;2022-08-18T12:22:47;23.30;99.90
11025;DHT22;22890;51.820;8.682;2022-08-18T12:25:17;23.40;99.90
11025;DHT22;22890;51.820;8.682;2022-08-18T12:28:04;23.40;99.90
11025;DHT22;22890;51.820;8.682;2022-08-18T12:30:36;23.40;99.90
11025;DHT22;22890;51.820;8.682;2022-08-18T12:33:07;23.30;99.90
11025;DHT22;22890;51.820;8.682;2022-08-18T12:35:38;23.40;99.90
11025;DHT22;22890;51.820;8.682;2022-08-18T12:38:25;23.50;99.90
11025;DHT22;22890;51.820;8.682;2022-08-18T12:40:52;23.60;99.90
11025;DHT22;22890;51.820;8.682;2022-08-18T12:43:19;23.70;99.90
11025;DHT22;22890;51.820;8.682;2022-08-18T12:45:46;23.80;99.90
11025;DHT22;22890;51.820;8.682;2022-08-18T12:48:12;23.90;99.90
11025;DHT22;22890;51.820;8.682;2022-08-18T12:50:40;24.00;99.90
11025;DHT22;22890;51.820;8.682;2022-08-18T12:53:24;24.00;99.90
11025;DHT22;22890;51.820;8.682;2022-08-18T12:56:32;24.10;99.90
11025;DHT22;22890;51.820;8.682;2022-08-18T12:59:03;24.10;99.90
11025;DHT22;22890;51.820;8.682;2022-08-18T13:01:32;24.10;99.90
11025;DHT22;22890;51.820;8.682;2022-08-18T13:03:59;24.10;99.90
11025;DHT22;22890;51.820;8.682;2022-08-18T13:06:43;24.10;99.90
11025;DHT22;22890;51.820;8.682;2022-08-18T13:09:29;24.20;99.90
11025;DHT22;22890;51.820;8.682;2022-08-18T13:12:16;24.20;99.90
11025;DHT22;22890;51.820;8.682;2022-08-18T13:14:45;26.40;99.90
11025;DHT22;22890;51.820;8.682;2022-08-18T13:17:13;24.30;99.90
11025;DHT22;22890;51.820;8.682;2022-08-18T13:20:04;24.20;99.90
11025;DHT22;22890;51.820;8.682;2022-08-18T13:22:33;24.40;99.90
11025;DHT22;22890;51.820;8.682;2022-08-18T13:25:01;24.50;99.90
11025;DHT22;22890;51.820;8.682;2022-08-18T13:27:31;24.50;99.90
11025;DHT22;22890;51.820;8.682;2022-08-18T13:30:01;24.60;99.90
11025;DHT22;22890;51.820;8.682;2022-08-18T13:32:48;24.70;99.90
11025;DHT22;22890;51.820;8.682;2022-08-18T13:35:26;24.80;99.90
11025;DHT22;22890;51.820;8.682;2022-08-18T13:38:00;24.90;99.90
11025;DHT22;22890;51.820;8.682;2022-08-18T13:40:45;25.00;99.90
11025;DHT22;22890;51.820;8.682;2022-08-18T13:43:15;25.10;99.90
11025;DHT22;22890;51.820;8.682;2022-08-18T13:45:44;25.10;99.90
11025;DHT22;22890;51.820;8.682;2022-08-18T13:48:18;25.20;99.90
11025;DHT22;22890;51.820;8.682;2022-08-18T13:50:45;25.10;99.90
11025;DHT22;22890;51.820;8.682;2022-08-18T13:53:18;25.10;99.90
11025;DHT22;22890;51.820;8.682;2022-08-18T13:55:46;25.10;99.90
11025;DHT22;22890;51.820;8.682;2022-08-18T13:58:14;25.20;99.90
11025;DHT22;22890;51.820;8.682;2022-08-18T14:00:48;25.20;99.90
11025;DHT22;22890;51.820;8.682;2022-08-18T14:03:18;25.20;99.90
11025;DHT22;22890;51.820;8.682;2022-08-18T14:06:06;25.20;99.90
11025;DHT22;22890;51.820;8.682;2022-08-18T14:08:33;27.30;99.90
11025;DHT22;22890;51.820;8.682;2022-08-18T14:11:01;25.30;99.90
11025;DHT22;22890;51.820;8.682;2022-08-18T14:13:29;25.30;99.90
11025;DHT22;22890;51.820;8.682;2022-08-18T14:16:09;25.40;99.90
11025;DHT22;22890;51.820;8.682;2022-08-18T14:18:36;25.40;99.90
11025;DHT22;22890;51.820;8.682;2022-08-18T14:21:04;25.30;99.90
11025;DHT22;22890;51.820;8.682;2022-08-18T14:23:50;25.40;99.90
11025;DHT22;22890;51.820;8.682;2022-08-18T14:26:36;25.40;99.90
11025;DHT22;22890;51.820;8.682;2022-08-18T14:29:17;25.50;99.90
11025;DHT22;22890;51.820;8.682;2022-08-18T14:32:04;25.60;99.90
11025;DHT22;22890;51.820;8.682;2022-08-18T14:34:31;25.60;99.90
11025;DHT22;22890;51.820;8.682;2022-08-18T14:36:58;25.70;99.90
11025;DHT22;22890;51.820;8.682;2022-08-18T14:39:25;25.70;99.90
11025;DHT22;22890;51.820;8.682;2022-08-18T14:41:52;25.70;99.90
11025;DHT22;22890;51.820;8.682;2022-08-18T14:44:22;25.60;99.90
11025;DHT22;22890;51.820;8.682;2022-08-18T14:46:55;25.60;99.90
11025;DHT22;22890;51.820;8.682;2022-08-18T14:49:23;25.60;99.90
11025;DHT22;22890;51.820;8.682;2022-08-18T14:51:56;25.60;99.90
11025;DHT22;22890;51.820;8.682;2022-08-18T14:54:23;25.60;99.90
11025;DHT22;22890;51.820;8.682;2022-08-18T14:56:54;25.60;99.90
11025;DHT22;22890;51.820;8.682;2022-08-18T14:59:21;25.50;99.90
11025;DHT22;22890;51.820;8.682;2022-08-18T15:01:49;25.50;99.90
11025;DHT22;22890;51.820;8.682;2022-08-18T15:04:17;25.60;99.90
11025;DHT22;22890;51.820;8.682;2022-08-18T15:06:48;25.50;99.90
11025;DHT22;22890;51.820;8.682;2022-08-18T15:09:23;25.50;99.90
11025;DHT22;22890;51.820;8.682;2022-08-18T15:11:53;25.50;99.90
11025;DHT22;22890;51.820;8.682;2022-08-18T15:14:22;25.50;99.90
11025;DHT22;22890;51.820;8.682;2022-08-18T15:16:59;25.40;99.90
11025;DHT22;22890;51.820;8.682;2022-08-18T15:19:26;25.40;99.90
11025;DHT22;22890;51.820;8.682;2022-08-18T15:22:13;25.30;99.90
11025;DHT22;22890;51.820;8.682;2022-08-18T15:24:58;25.30;99.90
11025;DHT22;22890;51.820;8.682;2022-08-18T15:27:46;25.30;99.90
11025;DHT22;22890;51.820;8.682;2022-08-18T15:30:18;25.30;99.90
11025;DHT22;22890;51.820;8.682;2022-08-18T15:32:47;25.40;99.90
11025;DHT22;22890;51.820;8.682;2022-08-18T15:35:16;25.30;99.90
11025;DHT22;22890;51.820;8.682;2022-08-18T15:37:46;25.30;99.90
11025;DHT22;22890;51.820;8.682;2022-08-18T15:40:19;25.40;99.90
11025;DHT22;22890;51.820;8.682;2022-08-18T15:43:05;25.30;99.90
11025;DHT22;22890;51.820;8.682;2022-08-18T15:45:37;25.20;99.90
11025;DHT22;22890;51.820;8.682;2022-08-18T15:48:24;25.20;99.90
11025;DHT22;22890;51.820;8.682;2022-08-18T15:50:52;25.20;99.90
11025;DHT22;22890;51.820;8.682;2022-08-18T15:53:25;25.20;99.90
11025;DHT22;22890;51.820;8.682;2022-08-18T15:55:56;25.30;99.90
11025;DHT22;22890;51.820;8.682;2022-08-18T15:58:23;25.30;99.90
11025;DHT22;22890;51.820;8.682;2022-08-18T16:00:54;25.30;99.90
11025;DHT22;22890;51.820;8.682;2022-08-18T16:03:20;25.30;99.90
11025;DHT22;22890;51.820;8.682;2022-08-18T16:05:51;25.20;99.90
11025;DHT22;22890;51.820;8.682;2022-08-18T16:08:21;25.20;99.90
11025;DHT22;22890;51.820;8.682;2022-08-18T16:10:47;25.20;99.90
11025;DHT22;22890;51.820;8.682;2022-08-18T16:13:14;25.30;99.90
11025;DHT22;22890;51.820;8.682;2022-08-18T16:15:43;25.20;99.90
11025;DHT22;22890;51.820;8.682;2022-08-18T16:18:13;25.20;99.90
11025;DHT22;22890;51.820;8.682;2022-08-18T16:20:40;25.20;99.90
11025;DHT22;22890;51.820;8.682;2022-08-18T16:23:08;25.20;99.90
11025;DHT22;22890;51.820;8.682;2022-08-18T16:25:37;25.20;99.90
11025;DHT22;22890;51.820;8.682;2022-08-18T16:28:04;23.70;99.90
11025;DHT22;22890;51.820;8.682;2022-08-18T16:30:31;25.20;99.90
11025;DHT22;22890;51.820;8.682;2022-08-18T16:33:00;25.20;99.90
11025;DHT22;22890;51.820;8.682;2022-08-18T16:35:29;25.20;99.90
11025;DHT22;22890;51.820;8.682;2022-08-18T16:38:04;25.30;99.90
11025;DHT22;22890;51.820;8.682;2022-08-18T16:40:31;25.30;99.90
11025;DHT22;22890;51.820;8.682;2022-08-18T16:42:58;23.50;99.90
11025;DHT22;22890;51.820;8.682;2022-08-18T16:45:27;25.30;99.90
11025;DHT22;22890;51.820;8.682;2022-08-18T16:47:54;25.30;99.90
11025;DHT22;22890;51.820;8.682;2022-08-18T16:50:21;25.30;99.90
11025;DHT22;22890;51.820;8.682;2022-08-18T16:52:49;25.30;99.90
11025;DHT22;22890;51.820;8.682;2022-08-18T16:55:16;25.30;99.90
11025;DHT22;22890;51.820;8.682;2022-08-18T16:57:43;25.20;99.90
11025;DHT22;22890;51.820;8.682;2022-08-18T17:00:31;25.20;99.90
11025;DHT22;22890;51.820;8.682;2022-08-18T17:03:22;25.20;99.90
11025;DHT22;22890;51.820;8.682;2022-08-18T17:06:12;25.10;99.90
11025;DHT22;22890;51.820;8.682;2022-08-18T17:08:40;25.10;99.90
11025;DHT22;22890;51.820;8.682;2022-08-18T17:11:10;23.80;99.90
11025;DHT22;22890;51.820;8.682;2022-08-18T17:13:38;25.10;99.90
11025;DHT22;22890;51.820;8.682;2022-08-18T17:16:07;25.10;99.90
11025;DHT22;22890;51.820;8.682;2022-08-18T17:18:34;25.00;99.90
11025;DHT22;22890;51.820;8.682;2022-08-18T17:21:03;25.00;99.90
11025;DHT22;22890;51.820;8.682;2022-08-18T17:23:30;25.10;99.90
11025;DHT22;22890;51.820;8.682;2022-08-18T17:26:00;25.00;99.90
11025;DHT22;22890;51.820;8.682;2022-08-18T17:28:50;25.00;99.90
11025;DHT22;22890;51.820;8.682;2022-08-18T17:31:21;25.00;99.90
11025;DHT22;22890;51.820;8.682;2022-08-18T17:33:51;25.00;99.90
11025;DHT22;22890;51.820;8.682;2022-08-18T17:36:31;24.90;99.90
11025;DHT22;22890;51.820;8.682;2022-08-18T17:39:01;24.80;99.90
11025;DHT22;22890;51.820;8.682;2022-08-18T17:41:28;24.80;99.90
11025;DHT22;22890;51.820;8.682;2022-08-18T17:43:56;24.80;99.90
11025;DHT22;22890;51.820;8.682;2022-08-18T17:46:30;24.80;99.90